Time;durP1;ratioP1;P1;durP2;ratioP2;P2;SDS_P1;SDS_P2;PMS_P1;PMS_P2;Temp;Humidity;BMP_temperature;BMP_pressure;BME280_temperature;BME280_humidity;BME280_pressure;Samples;Min_cycle;Max_cycle;Signal;HPM_P1;HPM_P2
2021/06/09 07:03:51;;;;;;;5.78;4.10;;;;;;;;;;5074773;22;20081;-45
2021/06/09 07:06:17;;;;;;;6.50;3.93;;;;;;;;;;5009344;28;20503;-50
2021/06/09 07:08:44;;;;;;;4.45;4.05;;;;;;;;;;4991361;28;20172;-47
2021/06/09 07:11:14;;;;;;;5.30;3.63;;;;;;;;;;5011156;28;20600;-46
2021/06/09 07:13:40;;;;;;;4.50;3.25;;;;;;;;;;4993079;28;20037;-46
2021/06/09 07:16:09;;;;;;;3.80;2.80;;;;;;;;;;4992076;28;20026;-46
2021/06/09 07:18:41;;;;;;;5.22;3.47;;;;;;;;;;4988649;28;20025;-51
2021/06/09 07:21:08;;;;;;;4.90;2.70;;;;;;;;;;5005598;28;20022;-52
2021/06/09 07:23:34;;;;;;;4.68;2.95;;;;;;;;;;4984236;28;20130;-52
2021/06/09 07:26:00;;;;;;;4.28;3.05;;;;;;;;;;4988622;28;20053;-49
2021/06/09 07:28:27;;;;;;;3.45;2.50;;;;;;;;;;5003110;28;20168;-52
2021/06/09 07:30:54;;;;;;;3.17;2.67;;;;;;;;;;4993675;28;20442;-49
2021/06/09 07:33:20;;;;;;;3.72;2.53;;;;;;;;;;4994702;28;20110;-52
2021/06/09 07:35:49;;;;;;;5.32;2.40;;;;;;;;;;5000596;28;20025;-52
2021/06/09 07:38:19;;;;;;;4.30;2.78;;;;;;;;;;4992239;28;20455;-53
2021/06/09 07:40:46;;;;;;;3.28;2.60;;;;;;;;;;4991834;28;20030;-50
2021/06/09 07:43:15;;;;;;;3.40;2.42;;;;;;;;;;4988334;28;20328;-49
2021/06/09 07:45:42;;;;;;;3.22;2.00;;;;;;;;;;5010481;28;20025;-47
2021/06/09 07:48:10;;;;;;;2.92;2.15;;;;;;;;;;4976609;28;20045;-48
2021/06/09 07:50:41;;;;;;;3.33;2.13;;;;;;;;;;4999808;28;20032;-52
2021/06/09 07:53:10;;;;;;;2.47;2.28;;;;;;;;;;5014904;28;20113;-52
2021/06/09 07:55:37;;;;;;;3.90;2.60;;;;;;;;;;5009543;28;20017;-50
2021/06/09 07:58:06;;;;;;;3.03;2.03;;;;;;;;;;5012198;28;20497;-52
2021/06/09 08:00:33;;;;;;;2.83;2.17;;;;;;;;;;5031574;28;20513;-53
2021/06/09 08:02:59;;;;;;;2.30;1.77;;;;;;;;;;5028802;28;20054;-52
2021/06/09 08:05:26;;;;;;;2.30;1.87;;;;;;;;;;5012261;28;20450;-51
2021/06/09 08:07:52;;;;;;;2.47;2.10;;;;;;;;;;5034907;28;20145;-53
2021/06/09 08:10:19;;;;;;;2.80;2.25;;;;;;;;;;5003738;28;20029;-49
2021/06/09 08:12:45;;;;;;;3.17;2.15;;;;;;;;;;5011151;28;20026;-49
2021/06/09 08:15:13;;;;;;;2.03;1.77;;;;;;;;;;5020827;28;20029;-49
2021/06/09 08:17:39;;;;;;;2.45;1.80;;;;;;;;;;5025483;28;20618;-53
2021/06/09 08:20:07;;;;;;;2.45;1.60;;;;;;;;;;5022959;28;20051;-48
2021/06/09 08:22:34;;;;;;;2.80;2.13;;;;;;;;;;5006866;28;20034;-47
2021/06/09 08:25:00;;;;;;;2.65;1.95;;;;;;;;;;5032321;28;20029;-49
2021/06/09 08:27:26;;;;;;;3.10;1.85;;;;;;;;;;5035189;28;20072;-51
2021/06/09 08:29:52;;;;;;;1.90;1.55;;;;;;;;;;5012161;28;20017;-50
2021/06/09 08:32:18;;;;;;;2.33;2.03;;;;;;;;;;5030838;28;20025;-48
2021/06/09 08:34:44;;;;;;;2.33;1.83;;;;;;;;;;5035859;28;20025;-48
2021/06/09 08:37:10;;;;;;;2.42;1.60;;;;;;;;;;5017766;28;20041;-48
2021/06/09 08:39:36;;;;;;;2.45;1.80;;;;;;;;;;5036938;28;20021;-50
2021/06/09 08:42:06;;;;;;;2.53;2.13;;;;;;;;;;5026396;28;20069;-48
2021/06/09 08:44:38;;;;;;;3.30;1.60;;;;;;;;;;5001379;28;20029;-50
2021/06/09 08:47:04;;;;;;;2.58;1.77;;;;;;;;;;5029426;28;20067;-47
2021/06/09 08:49:30;;;;;;;2.17;1.73;;;;;;;;;;5022330;28;20035;-46
2021/06/09 08:51:57;;;;;;;2.80;2.00;;;;;;;;;;4990872;28;20100;-46
2021/06/09 08:54:24;;;;;;;3.15;1.92;;;;;;;;;;5013507;28;20160;-46
2021/06/09 08:56:54;;;;;;;2.70;2.28;;;;;;;;;;5017884;28;20044;-47
2021/06/09 08:59:23;;;;;;;3.03;2.33;;;;;;;;;;5029721;28;20104;-46
2021/06/09 09:01:50;;;;;;;3.50;2.40;;;;;;;;;;4996004;28;20022;-49
2021/06/09 09:04:16;;;;;;;3.05;2.00;;;;;;;;;;5019125;28;20049;-52
2021/06/09 09:06:42;;;;;;;2.47;2.20;;;;;;;;;;4995852;28;20022;-51
2021/06/09 09:09:08;;;;;;;2.90;2.20;;;;;;;;;;5023725;28;20017;-52
2021/06/09 09:11:34;;;;;;;2.97;2.08;;;;;;;;;;5033364;28;20421;-50
2021/06/09 09:14:01;;;;;;;3.10;2.05;;;;;;;;;;5046535;28;20100;-51
2021/06/09 09:16:27;;;;;;;4.27;1.90;;;;;;;;;;5027951;28;20044;-53
2021/06/09 09:19:15;;;;;;;3.38;2.20;;;;;;;;;;5032763;28;20660;-53
2021/06/09 09:21:42;;;;;;;3.22;1.90;;;;;;;;;;5024175;28;20172;-49
2021/06/09 09:24:10;;;;;;;2.13;1.70;;;;;;;;;;4998561;28;20109;-51
2021/06/09 09:26:37;;;;;;;2.50;2.20;;;;;;;;;;5003252;28;20076;-53
2021/06/09 09:29:09;;;;;;;3.08;2.00;;;;;;;;;;5020639;28;20028;-49
2021/06/09 09:31:54;;;;;;;2.78;1.92;;;;;;;;;;5021310;28;20048;-53
2021/06/09 09:34:38;;;;;;;2.25;2.05;;;;;;;;;;5027405;28;20032;-51
2021/06/09 09:37:09;;;;;;;2.50;2.03;;;;;;;;;;5033512;28;20041;-52
2021/06/09 09:39:35;;;;;;;3.15;1.90;;;;;;;;;;5022001;28;20030;-52
2021/06/09 09:42:18;;;;;;;3.08;1.90;;;;;;;;;;5018555;28;20056;-51
2021/06/09 09:44:47;;;;;;;4.18;1.90;;;;;;;;;;5001911;28;20030;-50
2021/06/09 09:47:24;;;;;;;2.70;1.92;;;;;;;;;;5015452;28;20079;-50
2021/06/09 09:49:51;;;;;;;2.33;2.00;;;;;;;;;;4998908;28;20053;-50
2021/06/09 09:52:18;;;;;;;4.95;2.00;;;;;;;;;;4996086;28;20065;-51
2021/06/09 09:54:45;;;;;;;;;;;;;;;;;;5013432;28;20451;-51
2021/06/09 09:57:15;;;;;;;2.15;1.73;;;;;;;;;;5023169;28;20360;-52
2021/06/09 09:59:42;;;;;;;1.83;1.63;;;;;;;;;;5029451;28;20068;-54
2021/06/09 10:02:16;;;;;;;2.35;2.15;;;;;;;;;;5001044;28;20077;-49
2021/06/09 10:04:47;;;;;;;4.20;2.17;;;;;;;;;;5021265;28;20049;-52
2021/06/09 10:07:13;;;;;;;2.83;2.00;;;;;;;;;;5032925;28;20032;-52
2021/06/09 10:09:42;;;;;;;3.20;1.73;;;;;;;;;;5014954;28;20037;-48
2021/06/09 10:12:11;;;;;;;3.13;2.08;;;;;;;;;;5032166;28;20014;-48
2021/06/09 10:14:38;;;;;;;2.38;1.90;;;;;;;;;;5018085;28;20109;-49
2021/06/09 10:17:05;;;;;;;2.75;2.33;;;;;;;;;;4996869;28;20029;-49
2021/06/09 10:19:31;;;;;;;;;;;;;;;;;;5012266;28;20034;-51
2021/06/09 10:22:03;;;;;;;3.85;2.80;;;;;;;;;;5012106;28;19906;-50
2021/06/09 10:24:29;;;;;;;2.70;2.50;;;;;;;;;;4993637;28;20038;-49
2021/06/09 10:27:01;;;;;;;3.85;2.75;;;;;;;;;;5021730;28;20018;-50
2021/06/09 10:29:31;;;;;;;3.47;2.97;;;;;;;;;;5026011;28;20033;-49
2021/06/09 10:32:02;;;;;;;3.95;3.15;;;;;;;;;;5017437;28;20070;-48
2021/06/09 10:34:29;;;;;;;4.00;3.13;;;;;;;;;;5016525;28;20037;-49
2021/06/09 10:36:56;;;;;;;3.83;3.03;;;;;;;;;;5006759;28;20033;-50
2021/06/09 10:39:23;;;;;;;4.30;3.15;;;;;;;;;;5003109;28;20427;-49
2021/06/09 10:41:51;;;;;;;3.47;2.95;;;;;;;;;;5011741;28;20046;-49
2021/06/09 10:44:18;;;;;;;3.70;3.28;;;;;;;;;;5010897;28;20050;-49
2021/06/09 10:46:47;;;;;;;3.45;3.15;;;;;;;;;;4994444;28;20084;-45
2021/06/09 10:49:17;;;;;;;3.67;3.20;;;;;;;;;;5011785;28;20467;-48
2021/06/09 10:51:45;;;;;;;3.92;3.28;;;;;;;;;;4999703;28;20026;-48
2021/06/09 10:54:13;;;;;;;3.70;3.05;;;;;;;;;;5011771;28;20026;-50
2021/06/09 10:56:41;;;;;;;5.38;3.35;;;;;;;;;;4998228;28;20215;-49
2021/06/09 10:59:07;;;;;;;3.50;3.20;;;;;;;;;;5010315;28;20025;-48
2021/06/09 11:01:33;;;;;;;3.70;3.40;;;;;;;;;;5005893;28;20028;-49
2021/06/09 11:04:00;;;;;;;4.27;3.07;;;;;;;;;;4997286;28;20053;-47
2021/06/09 11:06:49;;;;;;;3.33;2.97;;;;;;;;;;4989263;28;20376;-47
2021/06/09 11:09:15;;;;;;;3.67;3.38;;;;;;;;;;5011354;28;20045;-47
2021/06/09 11:11:42;;;;;;;3.20;2.75;;;;;;;;;;5001044;28;20430;-47
2021/06/09 11:14:22;;;;;;;3.40;3.10;;;;;;;;;;5015780;28;20026;-51
2021/06/09 11:16:49;;;;;;;3.00;2.60;;;;;;;;;;5009570;28;20065;-52
2021/06/09 11:19:15;;;;;;;;;;;;;;;;;;5011873;28;20018;-51
2021/06/09 11:21:41;;;;;;;4.40;3.25;;;;;;;;;;5011102;28;19905;-48
2021/06/09 11:24:11;;;;;;;3.63;3.33;;;;;;;;;;5010700;28;20328;-52
2021/06/09 11:26:37;;;;;;;3.42;3.13;;;;;;;;;;5018427;28;20052;-50
2021/06/09 11:29:23;;;;;;;3.60;2.90;;;;;;;;;;4994155;28;20402;-49
2021/06/09 11:31:50;;;;;;;3.72;3.20;;;;;;;;;;5014946;28;20021;-51
2021/06/09 11:34:16;;;;;;;3.80;3.40;;;;;;;;;;5024173;28;20041;-51
2021/06/09 11:36:43;;;;;;;3.30;2.93;;;;;;;;;;5031309;28;20049;-50
2021/06/09 11:39:18;;;;;;;3.47;3.17;;;;;;;;;;5007310;28;20041;-52
2021/06/09 11:41:45;;;;;;;2.88;2.65;;;;;;;;;;5039779;28;20049;-49
2021/06/09 11:44:24;;;;;;;4.00;3.13;;;;;;;;;;5011757;28;20075;-49
2021/06/09 11:46:50;;;;;;;3.75;3.00;;;;;;;;;;5047058;28;20025;-48
2021/06/09 11:49:22;;;;;;;3.00;2.70;;;;;;;;;;5032240;28;20457;-49
2021/06/09 11:52:03;;;;;;;3.70;2.90;;;;;;;;;;5012352;28;20348;-47
2021/06/09 11:54:32;;;;;;;4.57;3.05;;;;;;;;;;5045063;28;20507;-49
2021/06/09 11:56:59;;;;;;;3.80;3.30;;;;;;;;;;5049892;28;20033;-47
2021/06/09 11:59:26;;;;;;;;;;;;;;;;;;5036320;28;20504;-50
2021/06/09 12:01:53;;;;;;;3.10;2.80;;;;;;;;;;5025731;28;19905;-47
2021/06/09 12:04:21;;;;;;;3.10;2.90;;;;;;;;;;5009364;28;20060;-49
2021/06/09 12:06:59;;;;;;;3.40;3.10;;;;;;;;;;5022610;28;20021;-52
2021/06/09 12:09:36;;;;;;;3.47;2.92;;;;;;;;;;5003310;28;20063;-48
2021/06/09 12:12:04;;;;;;;3.17;2.72;;;;;;;;;;5017692;28;20042;-47
2021/06/09 12:14:30;;;;;;;4.25;3.50;;;;;;;;;;4996669;28;20033;-49
2021/06/09 12:17:29;;;;;;;3.42;3.13;;;;;;;;;;5020497;28;20069;-57
2021/06/09 12:19:59;;;;;;;3.60;3.20;;;;;;;;;;4985281;28;20501;-53
2021/06/09 12:22:26;;;;;;;7.03;3.20;;;;;;;;;;5008711;28;20405;-51
2021/06/09 12:25:10;;;;;;;3.45;2.88;;;;;;;;;;5002946;28;20080;-50
2021/06/09 12:27:41;;;;;;;5.70;3.05;;;;;;;;;;5028790;28;20041;-50
2021/06/09 12:30:08;;;;;;;3.03;2.60;;;;;;;;;;5009782;28;20083;-57
2021/06/09 12:32:35;;;;;;;3.22;2.92;;;;;;;;;;5023720;28;20340;-52
2021/06/09 12:35:05;;;;;;;3.10;2.80;;;;;;;;;;5024401;28;20021;-50
2021/06/09 12:37:31;;;;;;;2.83;2.50;;;;;;;;;;5032777;28;20045;-50
2021/06/09 12:39:59;;;;;;;3.50;2.90;;;;;;;;;;5007457;28;20127;-51
2021/06/09 12:42:26;;;;;;;3.03;2.72;;;;;;;;;;4994539;28;20116;-53
2021/06/09 12:44:52;;;;;;;2.88;2.58;;;;;;;;;;5027324;28;20096;-51
2021/06/09 12:47:26;;;;;;;2.95;2.40;;;;;;;;;;5005921;28;20029;-53
2021/06/09 12:50:11;;;;;;;3.38;2.60;;;;;;;;;;5023860;28;20029;-53
2021/06/09 12:52:38;;;;;;;2.90;2.58;;;;;;;;;;5028271;28;20030;-48
2021/06/09 12:55:09;;;;;;;3.72;2.60;;;;;;;;;;5025385;28;20026;-48
2021/06/09 12:57:36;;;;;;;3.45;2.47;;;;;;;;;;5029528;28;20479;-47
2021/06/09 13:00:21;;;;;;;6.15;2.70;;;;;;;;;;5021676;28;20106;-50
2021/06/09 13:02:47;;;;;;;5.80;2.35;;;;;;;;;;5021941;28;20050;-48
2021/06/09 13:05:14;;;;;;;2.90;2.60;;;;;;;;;;5007772;28;21091;-49
2021/06/09 13:07:40;;;;;;;;;;;;;;;;;;5022684;28;20026;-49
2021/06/09 13:10:06;;;;;;;4.78;2.30;;;;;;;;;;5030703;28;19988;-48
2021/06/09 13:12:32;;;;;;;3.92;2.60;;;;;;;;;;5027143;28;20032;-50
2021/06/09 13:14:58;;;;;;;2.97;2.40;;;;;;;;;;5026485;28;20540;-51
2021/06/09 13:17:25;;;;;;;3.43;2.30;;;;;;;;;;5026636;28;20046;-50
2021/06/09 13:19:51;;;;;;;3.00;2.70;;;;;;;;;;5025932;28;20021;-51
2021/06/09 13:22:19;;;;;;;2.70;2.38;;;;;;;;;;5030435;28;20478;-48
2021/06/09 13:24:45;;;;;;;3.92;2.50;;;;;;;;;;5027605;28;20797;-53
2021/06/09 13:27:14;;;;;;;3.55;2.90;;;;;;;;;;5026152;28;20203;-49
2021/06/09 13:29:43;;;;;;;2.65;2.30;;;;;;;;;;5026374;28;20338;-49
2021/06/09 13:32:11;;;;;;;2.90;2.63;;;;;;;;;;5017789;28;20026;-50
2021/06/09 13:34:37;;;;;;;2.83;2.25;;;;;;;;;;5024285;28;20394;-50
2021/06/09 13:37:04;;;;;;;3.00;2.20;;;;;;;;;;5024862;28;20477;-49
2021/06/09 13:40:06;;;;;;;3.85;2.60;;;;;;;;;;5029046;28;20248;-49
2021/06/09 13:42:33;;;;;;;2.70;2.28;;;;;;;;;;4928411;29;20032;-48
2021/06/09 13:45:01;;;;;;;2.60;2.35;;;;;;;;;;4981566;28;20044;-48
2021/06/09 13:47:31;;;;;;;2.42;2.22;;;;;;;;;;5038699;28;20524;-48
2021/06/09 13:50:07;;;;;;;2.40;2.20;;;;;;;;;;5034167;28;20470;-48
2021/06/09 13:52:34;;;;;;;3.13;2.28;;;;;;;;;;5034810;28;20458;-48
2021/06/09 13:55:01;;;;;;;5.18;2.20;;;;;;;;;;5022825;28;20023;-52
2021/06/09 13:57:29;;;;;;;2.70;2.50;;;;;;;;;;5033109;28;20040;-51
2021/06/09 13:59:59;;;;;;;2.65;2.00;;;;;;;;;;5028984;28;20033;-52
2021/06/09 14:02:31;;;;;;;4.57;2.35;;;;;;;;;;5029104;28;20021;-44
2021/06/09 14:05:15;;;;;;;3.15;2.40;;;;;;;;;;5037888;28;20516;-48
2021/06/09 14:07:52;;;;;;;3.53;2.40;;;;;;;;;;5037468;28;20069;-46
2021/06/09 14:10:25;;;;;;;2.33;2.03;;;;;;;;;;5021804;28;20033;-46
2021/06/09 14:12:51;;;;;;;2.40;2.08;;;;;;;;;;5010222;28;20120;-41
2021/06/09 14:15:17;;;;;;;2.53;2.13;;;;;;;;;;5037488;28;20021;-44
2021/06/09 14:17:44;;;;;;;2.78;2.25;;;;;;;;;;5013282;28;20353;-44
2021/06/09 14:20:18;;;;;;;2.70;2.30;;;;;;;;;;5026651;28;20021;-48
2021/06/09 14:22:47;;;;;;;2.35;2.15;;;;;;;;;;5039451;28;20469;-48
2021/06/09 14:25:20;;;;;;;3.03;2.15;;;;;;;;;;5004607;28;20131;-47
2021/06/09 14:28:01;;;;;;;2.38;2.10;;;;;;;;;;5006949;28;20394;-51
2021/06/09 14:30:32;;;;;;;2.45;2.08;;;;;;;;;;4993955;28;20018;-50
2021/06/09 14:33:13;;;;;;;2.30;2.10;;;;;;;;;;5013242;28;20098;-47
2021/06/09 14:35:45;;;;;;;2.75;2.35;;;;;;;;;;5014238;28;20066;-46
2021/06/09 14:38:19;;;;;;;2.85;2.15;;;;;;;;;;5029110;28;20504;-46
2021/06/09 14:40:45;;;;;;;2.22;2.00;;;;;;;;;;5036836;28;20025;-46
2021/06/09 14:43:13;;;;;;;2.88;2.15;;;;;;;;;;5026045;28;20032;-47
2021/06/09 14:45:41;;;;;;;2.45;2.10;;;;;;;;;;5028517;28;20478;-46
2021/06/09 14:48:24;;;;;;;2.28;1.95;;;;;;;;;;5012507;28;20119;-45
2021/06/09 14:51:03;;;;;;;2.33;2.13;;;;;;;;;;5018804;28;20014;-48
2021/06/09 14:53:29;;;;;;;2.33;2.10;;;;;;;;;;5020326;28;20028;-47
2021/06/09 14:55:59;;;;;;;3.17;1.93;;;;;;;;;;5035791;28;20100;-46
2021/06/09 14:58:25;;;;;;;2.28;2.08;;;;;;;;;;5013801;28;20304;-45
2021/06/09 15:00:51;;;;;;;2.30;2.10;;;;;;;;;;5032805;28;20140;-46
2021/06/09 15:03:17;;;;;;;2.95;2.30;;;;;;;;;;5028457;28;20132;-46
2021/06/09 15:05:43;;;;;;;3.13;2.20;;;;;;;;;;5030428;28;20029;-47
2021/06/09 15:08:10;;;;;;;2.60;1.98;;;;;;;;;;5031166;28;20029;-49
2021/06/09 15:10:37;;;;;;;2.10;1.90;;;;;;;;;;5031867;28;20109;-48
2021/06/09 15:13:03;;;;;;;2.63;2.03;;;;;;;;;;5011485;28;20029;-49
2021/06/09 15:15:29;;;;;;;2.65;2.00;;;;;;;;;;5021426;28;20034;-50
2021/06/09 15:17:56;;;;;;;8.53;2.27;;;;;;;;;;5028730;28;20072;-58
2021/06/09 15:20:23;;;;;;;2.50;2.13;;;;;;;;;;5007833;28;20473;-53
2021/06/09 15:22:49;;;;;;;3.88;1.92;;;;;;;;;;5019772;28;20020;-53
2021/06/09 15:25:15;;;;;;;2.28;2.08;;;;;;;;;;5022853;28;20013;-59
2021/06/09 15:27:41;;;;;;;3.00;2.38;;;;;;;;;;5026864;28;20072;-53
2021/06/09 15:30:08;;;;;;;3.90;2.67;;;;;;;;;;5007126;28;20084;-54
2021/06/09 15:32:34;;;;;;;;;;;;;;;;;;4999907;28;20021;-52
2021/06/09 15:35:01;;;;;;;2.88;1.90;;;;;;;;;;5020461;28;19948;-51
2021/06/09 15:37:27;;;;;;;;;;;;;;;;;;5026677;28;20049;-51
2021/06/09 15:39:53;;;;;;;2.28;1.90;;;;;;;;;;5026568;28;19963;-52
2021/06/09 15:42:20;;;;;;;2.85;2.55;;;;;;;;;;5022299;28;20029;-51
2021/06/09 15:44:46;;;;;;;2.20;1.92;;;;;;;;;;5026911;28;20065;-52
2021/06/09 15:47:12;;;;;;;2.42;2.00;;;;;;;;;;5021689;28;20036;-52
2021/06/09 15:49:38;;;;;;;2.13;1.90;;;;;;;;;;5028950;28;20045;-54
2021/06/09 15:52:04;;;;;;;2.50;2.00;;;;;;;;;;4999551;28;20119;-51
2021/06/09 15:54:32;;;;;;;2.75;1.90;;;;;;;;;;5020371;28;20030;-57
2021/06/09 15:56:58;;;;;;;2.50;2.10;;;;;;;;;;5008770;28;20092;-51
2021/06/09 15:59:25;;;;;;;2.00;1.80;;;;;;;;;;4998044;28;20022;-51
2021/06/09 16:01:51;;;;;;;1.90;1.75;;;;;;;;;;5009038;28;20032;-56
2021/06/09 16:04:17;;;;;;;2.30;2.10;;;;;;;;;;5024012;28;20092;-51
2021/06/09 16:06:45;;;;;;;2.10;1.90;;;;;;;;;;5026305;28;20048;-54
2021/06/09 16:09:11;;;;;;;3.28;2.05;;;;;;;;;;5024107;28;20105;-52
2021/06/09 16:11:38;;;;;;;2.67;1.93;;;;;;;;;;5001120;28;20096;-51
2021/06/09 16:14:04;;;;;;;2.08;1.60;;;;;;;;;;5008702;28;20095;-51
2021/06/09 16:16:30;;;;;;;1.80;1.63;;;;;;;;;;4996843;28;20065;-50
2021/06/09 16:18:57;;;;;;;2.03;1.83;;;;;;;;;;5007538;28;20058;-54
2021/06/09 16:21:23;;;;;;;2.70;1.90;;;;;;;;;;5005170;28;20041;-54
2021/06/09 16:23:49;;;;;;;1.83;1.63;;;;;;;;;;5019877;28;20354;-51
2021/06/09 16:26:15;;;;;;;2.00;1.80;;;;;;;;;;5020002;28;20468;-53
2021/06/09 16:28:41;;;;;;;1.90;1.70;;;;;;;;;;5022243;28;20038;-52
2021/06/09 16:31:07;;;;;;;1.98;1.77;;;;;;;;;;5025491;28;20064;-53
2021/06/09 16:33:34;;;;;;;2.07;1.87;;;;;;;;;;5010709;28;20025;-52
2021/06/09 16:36:00;;;;;;;2.63;2.00;;;;;;;;;;5028173;28;20299;-52
2021/06/09 16:38:26;;;;;;;1.88;1.70;;;;;;;;;;5019119;28;20046;-51
2021/06/09 16:40:53;;;;;;;2.22;2.00;;;;;;;;;;5020537;28;20021;-51
2021/06/09 16:43:19;;;;;;;2.45;2.00;;;;;;;;;;5024052;28;20028;-51
2021/06/09 16:45:45;;;;;;;2.10;1.90;;;;;;;;;;5023973;28;20367;-53
2021/06/09 16:48:11;;;;;;;2.20;1.80;;;;;;;;;;5004201;28;20034;-52
2021/06/09 16:50:38;;;;;;;1.90;1.70;;;;;;;;;;5018445;28;20371;-52
2021/06/09 16:53:04;;;;;;;2.20;1.67;;;;;;;;;;5001755;28;20026;-53
2021/06/09 17:01:04;;;;;;;1.70;1.60;;;;;;;;;;5031430;28;20102;-51
2021/06/09 17:03:31;;;;;;;2.08;1.88;;;;;;;;;;5039299;28;20145;-51
2021/06/09 17:05:57;;;;;;;;;;;;;;;;;;5008612;28;20033;-50
2021/06/09 17:08:25;;;;;;;1.90;1.70;;;;;;;;;;5021616;28;20374;-49
2021/06/09 20:24:03;;;;;;;1.25;0.88;;;;;;;;;;5004996;23;20105;-47
2021/06/09 20:29:14;;;;;;;1.25;0.80;;;;;;;;;;5006898;28;20037;-58
2021/06/09 20:31:40;;;;;;;1.43;0.90;;;;;;;;;;4988737;28;20018;-59
2021/06/09 20:34:06;;;;;;;1.20;0.90;;;;;;;;;;5010567;28;20057;-58
2021/06/09 20:36:33;;;;;;;1.40;0.70;;;;;;;;;;4992748;28;20257;-57
2021/06/09 20:38:59;;;;;;;2.55;0.80;;;;;;;;;;5009914;28;20026;-59
2021/06/09 20:41:25;;;;;;;2.13;0.85;;;;;;;;;;4992428;28;20125;-58
2021/06/09 20:43:51;;;;;;;1.40;0.90;;;;;;;;;;4991504;28;20113;-57
2021/06/09 20:46:18;;;;;;;1.37;0.80;;;;;;;;;;4980206;28;20024;-54
2021/06/09 20:48:44;;;;;;;1.52;0.95;;;;;;;;;;4992109;28;20060;-57
2021/06/09 20:51:11;;;;;;;1.38;0.80;;;;;;;;;;5010189;28;20125;-57
